createdAt,value
2019-04-21T00:00:29.713Z,102598.83
2019-04-21T00:03:08.837Z,102598.36
2019-04-21T00:05:54.534Z,102597.05
2019-04-21T00:08:33.540Z,102591.27
2019-04-21T00:10:57.821Z,102589.92
2019-04-21T00:13:20.747Z,102587.62
2019-04-21T00:15:44.479Z,102586.71
2019-04-21T00:18:46.867Z,102584.94
2019-04-21T00:21:11.060Z,102588.58
2019-04-21T00:23:53.762Z,102585.48
2019-04-21T00:26:23.814Z,102586.35
2019-04-21T00:29:05.129Z,102581.88
2019-04-21T00:31:25.410Z,102576.50
2019-04-21T00:33:43.332Z,102576.09
2019-04-21T00:36:18.571Z,102567.98
2019-04-21T00:39:18.660Z,102567.55
2019-04-21T00:41:36.802Z,102560.89
2019-04-21T00:44:00.679Z,102560.81
2019-04-21T00:46:31.231Z,102557.21
2019-04-21T00:49:06.086Z,102553.21
2019-04-21T00:52:03.625Z,102552.81
2019-04-21T00:54:20.617Z,102547.87
2019-04-21T00:56:49.768Z,102549.69
2019-04-21T00:59:20.033Z,102542.91
2019-04-21T01:01:47.768Z,102537.09
2019-04-21T01:04:23.638Z,102539.79
2019-04-21T01:06:55.963Z,102528.63
2019-04-21T01:09:20.124Z,102526.88
2019-04-21T01:11:56.403Z,102526.44
2019-04-21T01:14:35.993Z,102523.23
2019-04-21T01:16:57.715Z,102520.55
2019-04-21T01:19:25.196Z,102525.05
2019-04-21T01:21:38.402Z,102519.20
2019-04-21T01:24:16.943Z,102516.55
2019-04-21T01:26:47.136Z,102520.55
2019-04-21T01:29:33.247Z,102517.89
2019-04-21T01:32:05.045Z,102512.11
2019-04-21T01:34:33.227Z,102515.20
2019-04-21T01:36:58.439Z,102515.20
2019-04-21T01:39:40.724Z,102509.42
2019-04-21T01:42:10.321Z,102510.77
2019-04-21T01:44:43.070Z,102506.73
2019-04-21T01:47:08.820Z,102507.20
2019-04-21T01:49:29.544Z,102496.00
2019-04-21T01:52:23.752Z,102495.08
2019-04-21T01:55:13.403Z,102493.73
2019-04-21T01:58:01.408Z,102496.47
2019-04-21T02:00:51.858Z,102489.27
2019-04-21T02:03:45.393Z,102489.70
2019-04-21T02:06:07.660Z,102491.09
2019-04-21T02:08:28.802Z,102477.23
2019-04-21T02:11:07.521Z,102475.92
2019-04-21T02:13:35.351Z,102476.36
2019-04-21T02:16:06.562Z,102470.58
2019-04-21T02:18:34.008Z,102467.37
2019-04-21T02:21:21.874Z,102469.20
2019-04-21T02:24:23.574Z,102466.50
2019-04-21T02:26:45.682Z,102470.97
2019-04-21T02:29:22.968Z,102461.59
2019-04-21T02:32:07.957Z,102455.78
2019-04-21T02:34:38.306Z,102450.00
2019-04-21T02:37:17.679Z,102449.12
2019-04-21T02:42:05.248Z,102442.80
2019-04-21T02:47:14.644Z,102438.28
2019-04-21T02:50:00.327Z,102432.02
2019-04-21T02:52:20.148Z,102432.97
2019-04-21T02:57:19.006Z,102427.11
2019-04-21T02:59:58.273Z,102423.95
2019-04-21T03:02:42.815Z,102425.38
2019-04-21T03:05:31.033Z,102415.48
2019-04-21T03:13:03.613Z,102405.06
2019-04-21T03:15:33.146Z,102414.05
2019-04-21T03:18:18.750Z,102407.80
2019-04-21T03:20:35.758Z,102402.02
2019-04-21T03:23:07.802Z,102400.24
2019-04-21T03:28:11.709Z,102398.02
2019-04-21T03:33:43.159Z,102393.98
2019-04-21T03:38:14.742Z,102377.44
2019-04-21T03:40:44.362Z,102377.44
2019-04-21T03:43:12.685Z,102372.05
2019-04-21T03:48:21.728Z,102369.36
2019-04-21T03:53:22.695Z,102363.98
2019-04-21T03:55:53.230Z,102355.03
2019-04-21T03:58:34.725Z,102353.26
2019-04-21T04:04:22.432Z,102351.05
2019-04-21T04:09:44.479Z,102338.93
2019-04-21T04:12:19.664Z,102340.75
2019-04-21T04:14:45.968Z,102336.71
2019-04-21T04:17:24.051Z,102339.45
2019-04-21T04:24:55.581Z,102340.75
2019-04-21T04:29:53.033Z,102336.36
2019-04-21T04:32:23.547Z,102335.88
2019-04-21T04:35:02.135Z,102338.58
2019-04-21T04:40:13.393Z,102330.50
2019-04-21T04:45:40.615Z,102332.33
2019-04-21T04:48:09.155Z,102329.67
2019-04-21T04:50:53.548Z,102328.33
2019-04-21T04:53:12.651Z,102331.97
2019-04-21T04:56:02.209Z,102323.02
2019-04-21T04:58:23.434Z,102327.45
2019-04-21T05:01:01.645Z,102325.24
2019-04-21T05:09:05.047Z,102320.25
2019-04-21T05:14:02.689Z,102318.09
2019-04-21T05:23:51.183Z,102318.09
2019-04-21T05:26:18.571Z,102318.52
2019-04-21T05:28:49.791Z,102314.05
2019-04-21T05:31:50.664Z,102318.52
2019-04-21T05:34:18.596Z,102315.83
2019-04-21T05:37:01.998Z,102316.30
2019-04-21T05:39:50.803Z,102314.95
2019-04-21T05:42:10.475Z,102314.52
2019-04-21T05:45:01.628Z,102321.25
2019-04-21T05:47:35.334Z,102317.21
2019-04-21T05:50:06.558Z,102314.59
2019-04-21T05:52:44.961Z,102319.98
2019-04-21T05:55:34.215Z,102309.22
2019-04-21T05:57:58.279Z,102306.05
2019-04-21T06:00:50.779Z,102304.23
2019-04-21T06:03:04.224Z,102302.89
2019-04-21T06:05:39.187Z,102300.67
2019-04-21T06:08:00.496Z,102298.37
2019-04-21T06:10:40.436Z,102305.10
2019-04-21T06:13:13.695Z,102300.15
2019-04-21T06:15:47.313Z,102304.63
2019-04-21T06:18:13.850Z,102303.28
2019-04-21T06:20:44.492Z,102302.41
2019-04-21T06:23:11.961Z,102304.23
2019-04-21T06:25:55.357Z,102302.84
2019-04-21T06:28:14.850Z,102296.47
2019-04-21T06:30:57.991Z,102296.39
2019-04-21T06:33:19.931Z,102295.39
2019-04-21T06:39:12.164Z,102292.05
2019-04-21T06:41:43.238Z,102295.57
2019-04-21T06:44:23.964Z,102297.74
2019-04-21T06:46:43.774Z,102298.48
2019-04-21T06:49:08.107Z,102296.14
2019-04-21T06:51:44.339Z,102292.45
2019-04-21T06:54:14.363Z,102287.89
2019-04-21T06:56:47.894Z,102283.33
2019-04-21T06:59:13.437Z,102290.41
2019-04-21T07:01:55.287Z,102291.19
2019-04-21T07:09:25.702Z,102284.20
2019-04-21T07:11:52.860Z,102276.47
2019-04-21T07:16:56.322Z,102286.19
2019-04-21T07:21:57.380Z,102280.15
2019-04-21T07:24:34.984Z,102285.88
2019-04-21T07:27:02.404Z,102281.75
2019-04-21T07:29:37.828Z,102283.00
2019-04-21T07:32:04.532Z,102280.66
2019-04-21T07:34:51.791Z,102286.78
2019-04-21T07:37:08.670Z,102279.52
2019-04-21T07:39:34.037Z,102278.56
2019-04-21T07:42:04.614Z,102279.34
2019-04-21T07:44:37.812Z,102278.36
2019-04-21T07:47:15.568Z,102275.19
2019-04-21T07:49:58.730Z,102278.23
2019-04-21T07:52:48.696Z,102270.09
2019-04-21T07:57:39.109Z,102266.39
2019-04-21T08:02:49.183Z,102256.30
2019-04-21T08:05:20.581Z,102262.91
2019-04-21T08:07:52.125Z,102258.38
2019-04-21T08:10:22.554Z,102254.28
2019-04-21T08:12:48.207Z,102254.67
2019-04-21T08:15:30.628Z,102254.15
2019-04-21T08:17:56.655Z,102248.23
2019-04-21T08:20:24.156Z,102251.79
2019-04-21T08:23:02.521Z,102245.00
2019-04-21T08:25:54.659Z,102243.56
2019-04-21T08:28:01.549Z,102243.98
2019-04-21T08:30:43.028Z,102244.78
2019-04-21T08:33:08.656Z,102243.85
2019-04-21T08:35:52.921Z,102236.63
2019-04-21T08:38:08.756Z,102237.03
2019-04-21T08:40:40.902Z,102227.59
2019-04-21T08:43:12.636Z,102230.23
2019-04-21T08:45:43.242Z,102227.06
2019-04-21T08:48:12.420Z,102222.09
2019-04-21T08:50:47.605Z,102225.23
2019-04-21T08:53:15.598Z,102213.52
2019-04-21T08:56:10.030Z,102209.39
2019-04-21T08:59:03.770Z,102211.22
2019-04-21T09:01:33.019Z,102203.55
2019-04-21T09:04:07.499Z,102203.13
2019-04-21T09:06:57.176Z,102204.42
2019-04-21T09:09:14.382Z,102198.61
2019-04-21T09:11:40.414Z,102196.81
2019-04-21T09:14:13.609Z,102193.64
2019-04-21T09:16:44.375Z,102190.41
2019-04-21T09:19:20.252Z,102189.98
2019-04-21T09:21:52.953Z,102185.08
2019-04-21T09:24:23.337Z,102181.09
2019-04-21T09:26:52.933Z,102179.30
2019-04-21T09:29:11.856Z,102167.61
2019-04-21T09:31:39.736Z,102168.95
2019-04-21T09:34:08.409Z,102164.05
2019-04-21T09:36:43.158Z,102162.22
2019-04-21T09:39:16.822Z,102158.74
2019-04-21T09:41:43.061Z,102155.63
2019-04-21T09:44:17.245Z,102156.58
2019-04-21T09:46:50.704Z,102153.88
2019-04-21T09:49:20.582Z,102147.63
2019-04-21T09:51:46.510Z,102152.11
2019-04-21T09:54:23.067Z,102144.12
2019-04-21T09:56:54.955Z,102139.53
2019-04-21T09:59:26.178Z,102138.19
2019-04-21T10:02:01.538Z,102138.24
2019-04-21T10:04:21.268Z,102132.31
2019-04-21T10:06:51.951Z,102120.66
2019-04-21T10:09:24.275Z,102118.42
2019-04-21T10:11:54.901Z,102118.89
2019-04-21T10:14:26.418Z,102120.24
2019-04-21T10:17:15.093Z,102113.03
2019-04-21T10:19:44.784Z,102108.53
2019-04-21T10:22:14.827Z,102110.81
2019-04-21T10:24:44.665Z,102102.34
2019-04-21T10:27:14.767Z,102100.50
2019-04-21T10:29:45.338Z,102093.23
2019-04-21T10:32:18.298Z,102093.29
2019-04-21T10:34:47.484Z,102091.94
2019-04-21T10:37:17.104Z,102081.16
2019-04-21T10:39:47.543Z,102079.81
2019-04-21T10:42:17.435Z,102076.25
2019-04-21T10:44:47.297Z,102072.59
2019-04-21T10:47:18.351Z,102067.29
2019-04-21T10:49:48.661Z,102067.29
2019-04-21T10:52:22.927Z,102064.12
2019-04-21T10:55:12.477Z,102058.67
2019-04-21T10:57:26.965Z,102060.02
2019-04-21T10:59:59.431Z,102055.97
2019-04-21T11:02:39.115Z,102051.03
2019-04-21T11:05:09.067Z,102045.25
2019-04-21T11:08:01.234Z,102041.27
2019-04-21T11:10:36.565Z,102037.22
2019-04-21T11:13:24.430Z,102041.59
2019-04-21T11:15:55.194Z,102039.38
2019-04-21T11:18:25.972Z,102035.28
2019-04-21T11:20:55.556Z,102026.86
2019-04-21T11:23:25.123Z,102026.37
2019-04-21T11:25:55.785Z,102022.34
2019-04-21T11:28:25.371Z,102020.03
2019-04-21T11:30:54.966Z,102017.42
2019-04-21T11:33:24.954Z,102014.25
2019-04-21T11:35:55.145Z,102012.91
2019-04-21T11:38:51.322Z,102009.82
2019-04-21T11:41:05.742Z,102008.47
2019-04-21T11:43:35.302Z,102001.25
2019-04-21T11:46:06.424Z,102003.95
2019-04-21T11:48:36.515Z,102005.69
2019-04-21T11:51:06.870Z,101994.09
2019-04-21T11:53:37.084Z,101998.23
2019-04-21T11:56:06.957Z,101995.05
2019-04-21T11:58:36.548Z,101990.63
2019-04-21T12:01:07.701Z,101982.98
2019-04-21T12:03:37.767Z,101978.94
2019-04-21T12:06:07.388Z,101973.11
2019-04-21T12:08:41.296Z,101969.98
2019-04-21T12:11:09.426Z,101968.25
2019-04-21T12:13:40.241Z,101966.91
2019-04-21T12:16:10.837Z,101969.51
2019-04-21T12:18:40.778Z,101965.08
2019-04-21T12:21:11.464Z,101956.61
2019-04-21T12:23:41.138Z,101953.43
2019-04-21T12:26:11.099Z,101956.03
2019-04-21T12:28:41.787Z,101947.08
2019-04-21T12:31:31.623Z,101949.72
2019-04-21T12:34:03.667Z,101940.82
2019-04-21T12:36:33.968Z,101935.91
2019-04-21T12:39:06.927Z,101937.26
2019-04-21T12:41:36.303Z,101924.27
2019-04-21T12:44:06.717Z,101923.78
2019-04-21T12:46:36.330Z,101918.39
2019-04-21T12:49:05.914Z,101920.12
2019-04-21T12:51:35.739Z,101911.17
2019-04-21T12:54:05.879Z,101903.56
2019-04-21T12:56:35.794Z,101899.91
2019-04-21T12:59:05.394Z,101896.83
2019-04-21T13:01:35.072Z,101886.92
2019-04-21T13:04:05.812Z,101882.55
2019-04-21T13:06:37.257Z,101874.47
2019-04-21T13:09:10.823Z,101870.91
2019-04-21T13:11:39.269Z,101862.82
2019-04-21T13:14:09.038Z,101864.16
2019-04-21T13:16:39.269Z,101852.91
2019-04-21T13:19:09.325Z,101854.73
2019-04-21T13:21:40.268Z,101849.73
2019-04-21T13:24:09.961Z,101842.12
2019-04-21T13:26:48.401Z,101843.41
2019-04-21T13:29:12.175Z,101838.02
2019-04-21T13:31:42.583Z,101832.21
2019-04-21T13:34:13.667Z,101834.52
2019-04-21T13:36:43.670Z,101826.82
2019-04-21T13:39:55.233Z,101825.09
2019-04-21T13:42:13.218Z,101819.70
2019-04-21T13:44:35.211Z,101817.87
2019-04-21T13:47:04.970Z,101821.43
2019-04-21T13:49:35.188Z,101815.66
2019-04-21T13:52:04.983Z,101808.05
2019-04-21T13:54:35.673Z,101801.31
2019-04-21T13:57:05.360Z,101800.83
2019-04-21T13:59:36.338Z,101802.66
2019-04-21T14:02:06.872Z,101801.31
2019-04-21T14:04:37.771Z,101797.72
2019-04-21T14:07:08.185Z,101790.12
2019-04-21T14:09:47.687Z,101785.59
2019-04-21T14:12:09.653Z,101775.30
2019-04-21T14:14:39.367Z,101774.20
2019-04-21T14:17:09.076Z,101770.86
2019-04-21T14:19:39.463Z,101770.97
2019-04-21T14:22:11.663Z,101768.72
2019-04-21T14:24:41.643Z,101764.77
2019-04-21T14:27:12.134Z,101767.37
2019-04-21T14:29:41.851Z,101764.67
2019-04-21T14:32:11.384Z,101753.89
2019-04-21T14:34:41.990Z,101760.25
2019-04-21T14:37:13.034Z,101753.83
2019-04-21T14:39:55.267Z,101751.20
2019-04-21T14:42:14.465Z,101749.85
2019-04-21T14:44:45.085Z,101740.42
2019-04-21T14:47:31.545Z,101738.14
2019-04-21T14:50:24.225Z,101740.90
2019-04-21T14:53:12.226Z,101739.07
2019-04-21T14:55:45.709Z,101737.82
2019-04-21T14:58:17.085Z,101729.80
2019-04-21T15:00:53.096Z,101730.77
2019-04-21T15:03:23.647Z,101727.52
2019-04-21T15:05:53.556Z,101727.59
2019-04-21T15:08:23.173Z,101726.17
2019-04-21T15:10:52.867Z,101715.84
2019-04-21T15:13:23.617Z,101706.41
2019-04-21T15:15:54.272Z,101710.00
2019-04-21T15:18:24.260Z,101701.44
2019-04-21T15:20:55.189Z,101701.82
2019-04-21T15:23:26.847Z,101696.53
2019-04-21T15:25:56.549Z,101693.35
2019-04-21T15:28:30.725Z,101692.48
2019-04-21T15:30:58.663Z,101692.48
2019-04-21T15:33:28.844Z,101693.42
2019-04-21T15:35:58.636Z,101687.16
2019-04-21T15:38:29.739Z,101690.72
2019-04-21T15:41:03.856Z,101683.92
2019-04-21T15:43:30.729Z,101678.53
2019-04-21T15:46:00.755Z,101682.16
2019-04-21T15:48:30.932Z,101673.20
2019-04-21T15:51:04.858Z,101674.39
2019-04-21T15:53:32.343Z,101671.80
2019-04-21T15:56:07.118Z,101665.54
2019-04-21T15:58:46.432Z,101666.89
2019-04-21T16:01:24.851Z,101657.91
2019-04-21T16:03:58.340Z,101660.53
2019-04-21T16:06:25.886Z,101652.93
2019-04-21T16:08:58.990Z,101650.30
2019-04-21T16:11:28.110Z,101648.47
2019-04-21T16:13:57.784Z,101641.66
2019-04-21T16:16:30.379Z,101637.24
2019-04-21T16:18:58.634Z,101626.91
2019-04-21T16:21:29.548Z,101629.70
2019-04-21T16:24:00.473Z,101629.61
2019-04-21T16:26:30.674Z,101625.98
2019-04-21T16:29:00.298Z,101625.88
2019-04-21T16:31:32.216Z,101620.03
2019-04-21T16:34:02.994Z,101615.89
2019-04-21T16:36:33.806Z,101614.16
2019-04-21T16:39:03.492Z,101611.95
2019-04-21T16:41:34.046Z,101608.77
2019-04-21T16:44:05.083Z,101604.73
2019-04-21T16:46:35.728Z,101603.28
2019-04-21T16:49:05.446Z,101604.25
2019-04-21T16:51:36.075Z,101601.55
2019-04-21T16:54:23.926Z,101598.86
2019-04-21T16:57:00.094Z,101601.07
2019-04-21T16:59:33.014Z,101592.98
2019-04-21T17:02:02.787Z,101589.42
2019-04-21T17:04:33.982Z,101588.08
2019-04-21T17:07:05.072Z,101590.39
2019-04-21T17:09:34.779Z,101582.76
2019-04-21T17:12:09.242Z,101581.83
2019-04-21T17:14:53.535Z,101580.96
2019-04-21T17:17:32.353Z,101581.34
2019-04-21T17:19:45.596Z,101579.13
2019-04-21T17:22:13.606Z,101572.39
2019-04-21T17:24:44.380Z,101576.92
2019-04-21T17:27:15.292Z,101577.85
2019-04-21T17:29:46.279Z,101570.63
2019-04-21T17:32:16.501Z,101569.70
2019-04-21T17:34:46.120Z,101573.73
2019-04-21T17:37:17.236Z,101570.63
2019-04-21T17:39:49.186Z,101566.59
2019-04-21T17:42:33.352Z,101572.39
2019-04-21T17:44:51.047Z,101570.08
2019-04-21T17:47:31.382Z,101570.18
2019-04-21T17:50:11.763Z,101563.89
2019-04-21T17:52:55.368Z,101568.83
2019-04-21T17:55:27.549Z,101563.45
2019-04-21T17:58:09.766Z,101562.16
2019-04-21T18:01:05.552Z,101564.38
2019-04-21T18:03:27.313Z,101558.13
2019-04-21T18:05:43.530Z,101554.95
2019-04-21T18:08:21.442Z,101556.70
2019-04-21T18:10:43.994Z,101560.75
2019-04-21T18:13:07.853Z,101557.64
2019-04-21T18:15:49.290Z,101559.40
2019-04-21T18:18:05.082Z,101556.78
2019-04-21T18:20:37.732Z,101554.08
2019-04-21T18:23:34.962Z,101556.39
2019-04-21T18:26:01.588Z,101562.55
2019-04-21T18:28:26.348Z,101552.73
2019-04-21T18:31:06.951Z,101558.19
2019-04-21T18:33:42.036Z,101556.39
2019-04-21T18:36:31.825Z,101560.44
2019-04-21T18:39:39.250Z,101554.64
2019-04-21T18:42:31.191Z,101551.45
2019-04-21T18:45:34.411Z,101553.77
2019-04-21T18:47:59.555Z,101554.16
2019-04-21T18:50:46.290Z,101554.64
2019-04-21T18:53:24.506Z,101558.98
2019-04-21T18:55:47.160Z,101557.16
2019-04-21T18:58:15.615Z,101562.96
2019-04-21T19:00:45.812Z,101562.55
2019-04-21T19:03:25.323Z,101561.20
2019-04-21T19:05:54.045Z,101557.16
2019-04-21T19:08:40.523Z,101557.16
2019-04-21T19:11:08.828Z,101556.22
2019-04-21T19:14:12.711Z,101558.13
2019-04-21T19:16:33.619Z,101554.02
2019-04-21T19:19:24.673Z,101557.57
2019-04-21T19:21:28.386Z,101557.09
2019-04-21T19:24:12.163Z,101554.88
2019-04-21T19:29:11.245Z,101555.81
2019-04-21T19:31:39.783Z,101555.81
2019-04-21T19:34:01.056Z,101558.50
2019-04-21T19:36:23.535Z,101550.42
2019-04-21T19:39:03.688Z,101552.66
2019-04-21T19:41:38.243Z,101552.56
2019-04-21T19:44:14.286Z,101551.31
2019-04-21T19:46:54.498Z,101552.66
2019-04-21T19:49:21.692Z,101551.39
2019-04-21T19:51:40.557Z,101551.77
2019-04-21T19:54:13.318Z,101548.69
2019-04-21T19:56:36.549Z,101540.61
2019-04-21T19:59:06.847Z,101543.78
2019-04-21T20:01:37.236Z,101549.17
2019-04-21T20:04:08.156Z,101542.44
2019-04-21T20:06:50.238Z,101539.81
2019-04-21T20:09:28.104Z,101542.92
2019-04-21T20:11:53.558Z,101544.27
2019-04-21T20:14:51.074Z,101540.23
2019-04-21T20:16:57.777Z,101534.42
2019-04-21T20:19:16.205Z,101533.48
2019-04-21T20:21:47.103Z,101530.80
2019-04-21T20:24:22.658Z,101529.45
2019-04-21T20:26:58.581Z,101527.13
2019-04-21T20:29:37.663Z,101526.65
2019-04-21T20:32:09.813Z,101527.52
2019-04-21T20:34:38.770Z,101525.72
2019-04-21T20:37:14.790Z,101522.13
2019-04-21T20:39:28.309Z,101524.81
2019-04-21T20:42:08.671Z,101522.13
2019-04-21T20:44:40.230Z,101521.56
2019-04-21T20:47:07.443Z,101520.22
2019-04-21T20:49:39.762Z,101517.14
2019-04-21T20:52:18.721Z,101520.78
2019-04-21T20:54:47.925Z,101506.44
2019-04-21T20:57:24.134Z,101513.59
2019-04-21T20:59:44.473Z,101514.45
2019-04-21T21:02:21.945Z,101505.95
2019-04-21T21:04:45.750Z,101505.95
2019-04-21T21:07:41.686Z,101502.02
2019-04-21T21:10:00.527Z,101507.78
2019-04-21T21:12:35.899Z,101505.20
2019-04-21T21:14:54.369Z,101497.48
2019-04-21T21:17:48.233Z,101491.72
2019-04-21T21:20:07.849Z,101492.58
2019-04-21T21:22:33.029Z,101489.41
2019-04-21T21:25:03.056Z,101495.77
2019-04-21T21:27:31.921Z,101487.75
2019-04-21T21:30:09.595Z,101489.96
2019-04-21T21:32:38.579Z,101490.38
2019-04-21T21:35:13.113Z,101489.96
2019-04-21T21:37:44.092Z,101488.13
2019-04-21T21:40:18.027Z,101489.09
2019-04-21T21:42:33.898Z,101489.58
2019-04-21T21:45:04.926Z,101483.70
2019-04-21T21:47:48.599Z,101482.05
2019-04-21T21:50:11.083Z,101482.91
2019-04-21T21:52:44.948Z,101479.36
2019-04-21T21:55:05.695Z,101475.31
2019-04-21T21:57:43.900Z,101478.39
2019-04-21T22:00:10.965Z,101482.43
2019-04-21T22:02:45.536Z,101477.14
2019-04-21T22:05:16.846Z,101479.36
2019-04-21T22:07:42.511Z,101472.69
2019-04-21T22:10:12.468Z,101468.20
2019-04-21T22:12:50.549Z,101468.20
2019-04-21T22:15:18.666Z,101465.88
2019-04-21T22:18:01.289Z,101464.53
2019-04-21T22:20:33.104Z,101462.33
2019-04-21T22:22:56.387Z,101459.22
2019-04-21T22:25:24.280Z,101456.07
2019-04-21T22:27:50.772Z,101453.45
2019-04-21T22:30:28.977Z,101452.97
2019-04-21T22:33:14.535Z,101452.10
2019-04-21T22:35:50.353Z,101452.59
2019-04-21T22:38:28.392Z,101449.48
2019-04-21T22:40:58.025Z,101446.41
2019-04-21T22:43:26.560Z,101454.00
2019-04-21T22:45:49.503Z,101441.02
2019-04-21T22:48:23.051Z,101443.78
2019-04-21T22:50:50.866Z,101443.23
2019-04-21T22:53:21.406Z,101441.57
2019-04-21T22:55:57.226Z,101439.26
2019-04-21T22:58:29.311Z,101428.48
2019-04-21T23:00:58.453Z,101435.62
2019-04-21T23:03:28.547Z,101433.42
2019-04-21T23:06:01.466Z,101431.97
2019-04-21T23:08:34.418Z,101427.13
2019-04-21T23:11:06.198Z,101428.89
2019-04-21T23:13:32.755Z,101429.38
2019-04-21T23:16:04.800Z,101425.34
2019-04-21T23:18:49.139Z,101421.19
2019-04-21T23:21:23.092Z,101419.05
2019-04-21T23:23:57.219Z,101415.01
2019-04-21T23:26:29.857Z,101417.70
2019-04-21T23:29:03.005Z,101418.12
2019-04-21T23:31:34.456Z,101413.66
2019-04-21T23:33:44.148Z,101411.08
2019-04-21T23:36:19.323Z,101407.89
2019-04-21T23:38:49.425Z,101407.52
2019-04-21T23:41:17.359Z,101403.47
2019-04-21T23:43:53.157Z,101413.77
2019-04-21T23:46:24.461Z,101404.82
2019-04-21T23:49:07.526Z,101403.92
2019-04-21T23:51:34.420Z,101398.16
2019-04-21T23:53:53.514Z,101396.73
2019-04-21T23:56:32.949Z,101392.70
2019-04-21T23:59:02.636Z,101389.59
